SondeTracker

Meteorological Radiosondes Database

Operations

Sounding was ended - last measurement: 2022-12-07 13:08:33z

MAP
About Radiosonde

Number: D22031804 ([BC]22031804)

Launch Site: Charleston [SC] (US)

Type: DFM

AUX: NO

Frequency: MHz

Max Speed: 170 km/h at 32858 m

Average Speed: 82.94 km/h

Max Altitude: 33068 m

Average Ascent Speed: 5.09 m/s

Average Descent Speed: 21.07 m/s

Status: LOST

Status Changes
Launch Site Type AUX Frequency Status Finder Landing Point Description Changes made by
MHz LOST 0, 0 AUTO STATUS: Probably lost in the water [BOT]AUTO-STATUS - 2022-12-07 14:11:39z
APRS Statistics

Received Frames: 341

First Frame [UTC]: 2022-12-07 11:13:16z

Last Frame [UTC]: 2022-12-07 13:08:33z

Receivers: W4DEX-14

Flight Time: 01:55:17 h

Distance From First Measurement: 146.40 km

Nearest City: [0.00 km]

Nearest Hunter: [0.00 km]

Ground Altitude: -123 m

Distance from QTH: 0.00 km

APRS Data
Receiver Number Date/Time [UTC] φ λ Course [°] Speed [km/h] Altitude [m] Description
W4DEX-14D220318042022-12-07 13:08:3332.419-78.5311112447088Clb=-13.0m/s Type=DFM17 ser=[BC]22031804 Details on http://radiosondy.info
W4DEX-14D220318042022-12-07 13:08:1632.4196-78.5329116507277Clb=-12.2m/s Type=DFM17 ser=[BC]22031804 Details on http://radiosondy.info
W4DEX-14D220318042022-12-07 13:08:0132.4205-78.5349116567459Clb=-11.4m/s Type=DFM17 ser=[BC]22031804 Details on http://radiosondy.info
W4DEX-14D220318042022-12-07 13:07:4632.4214-78.5371116597619Clb=-10.5m/s Type=DFM17 ser=[BC]22031804 Details on http://radiosondy.info
W4DEX-14D220318042022-12-07 13:07:2632.4226-78.5393127577783Clb=-10.5m/s Type=DFM17 ser=[BC]22031804 Details on http://radiosondy.info
W4DEX-14D220318042022-12-07 13:07:0532.4237-78.5413126577940Clb=-10.2m/s Type=DFM17 ser=[BC]22031804 Details on http://radiosondy.info
W4DEX-14D220318042022-12-07 13:06:4832.425-78.5434125598093Clb=-10.6m/s Type=DFM17 ser=[BC]22031804 Details on http://radiosondy.info
W4DEX-14D220318042022-12-07 13:06:3032.4261-78.5457123638253Clb=-10.4m/s Type=DFM17 ser=[BC]22031804 Details on http://radiosondy.info
W4DEX-14D220318042022-12-07 13:06:1232.4275-78.5481126678414Clb=-12.3m/s Type=DFM17 ser=[BC]22031804 Details on http://radiosondy.info
W4DEX-14D220318042022-12-07 13:05:5432.429-78.5505132618580Clb=-11.5m/s Type=DFM17 ser=[BC]22031804 Details on http://radiosondy.info
W4DEX-14D220318042022-12-07 13:05:3432.4306-78.5524136638745Clb=-11.5m/s Type=DFM17 ser=[BC]22031804 Details on http://radiosondy.info
W4DEX-14D220318042022-12-07 13:05:1532.4323-78.5544138708911Clb=-10.9m/s Type=DFM17 ser=[BC]22031804 Details on http://radiosondy.info
W4DEX-14D220318042022-12-07 13:04:5232.4342-78.5564145709068Clb=-11.6m/s Type=DFM17 ser=[BC]22031804 Details on http://radiosondy.info
W4DEX-14D220318042022-12-07 13:04:2232.4374-78.56130639409Clb=-13.7m/s Type=DFM17 ser=[BC]22031804 Details on http://radiosondy.info
W4DEX-14D220318042022-12-07 13:04:0432.4391-78.5618147819609Clb=-13.6m/s Type=DFM17 ser=[BC]22031804 Details on http://radiosondy.info
W4DEX-14D220318042022-12-07 13:03:4632.4416-78.5639141859814Clb=-13.6m/s Type=DFM17 ser=[BC]22031804 Details on http://radiosondy.info
W4DEX-14D220318042022-12-07 13:03:2732.4439-78.56651359110017Clb=-13.4m/s Type=DFM17 ser=[BC]22031804 Details on http://radiosondy.info
W4DEX-14D220318042022-12-07 13:03:0932.4463-78.56931359410218Clb=-13.5m/s Type=DFM17 ser=[BC]22031804 Details on http://radiosondy.info
W4DEX-14D220318042022-12-07 13:02:4832.4488-78.57241349610421Clb=-13.2m/s Type=DFM17 ser=[BC]22031804 Details on http://radiosondy.info
W4DEX-14D220318042022-12-07 13:02:2732.4513-78.575613310210622Clb=-14.2m/s Type=DFM17 ser=[BC]22031804 Details on http://radiosondy.info
W4DEX-14D220318042022-12-07 13:02:0732.4538-78.578912910410837Clb=-15.1m/s Type=DFM17 ser=[BC]22031804 Details on http://radiosondy.info
W4DEX-14D220318042022-12-07 13:01:4632.4564-78.582413010411054Clb=-13.5m/s Type=DFM17 ser=[BC]22031804 Details on http://radiosondy.info
W4DEX-14D220318042022-12-07 13:01:2532.4589-78.585912810711259Clb=-13.9m/s Type=DFM17 ser=[BC]22031804 Details on http://radiosondy.info
W4DEX-14D220318042022-12-07 13:01:0132.4614-78.589613110411466Clb=-14.8m/s Type=DFM17 ser=[BC]22031804 Details on http://radiosondy.info
W4DEX-14D220318042022-12-07 13:00:3532.464-78.59313510411672Clb=-14.1m/s Type=DFM17 ser=[BC]22031804 Details on http://radiosondy.info
W4DEX-14D220318042022-12-07 13:00:0932.4667-78.596313510611896Clb=-15.6m/s Type=DFM17 ser=[BC]22031804 Details on http://radiosondy.info
W4DEX-14D220318042022-12-07 12:59:5032.4694-78.599713311312127Clb=-15.8m/s Type=DFM17 ser=[BC]22031804 Details on http://radiosondy.info
W4DEX-14D220318042022-12-07 12:59:3732.4724-78.603313712012350Clb=-14.8m/s Type=DFM17 ser=[BC]22031804 Details on http://radiosondy.info
W4DEX-14D220318042022-12-07 12:59:2032.4757-78.60713712612573Clb=-14.6m/s Type=DFM17 ser=[BC]22031804 Details on http://radiosondy.info
W4DEX-14D220318042022-12-07 12:59:0632.4791-78.610913712012797Clb=-15.0m/s Type=DFM17 ser=[BC]22031804 Details on http://radiosondy.info
W4DEX-14D220318042022-12-07 12:58:5032.4823-78.614713211513027Clb=-15.6m/s Type=DFM17 ser=[BC]22031804 Details on http://radiosondy.info
W4DEX-14D220318042022-12-07 12:58:3732.4852-78.618413010613264Clb=-16.0m/s Type=DFM17 ser=[BC]22031804 Details on http://radiosondy.info
W4DEX-14D220318042022-12-07 12:58:2032.4872-78.622411911913505Clb=-15.8m/s Type=DFM17 ser=[BC]22031804 Details on http://radiosondy.info
W4DEX-14D220318042022-12-07 12:58:0132.5074-78.663712010416656Clb=-22.2m/s Type=DFM17 ser=[BC]22031804 Details on http://radiosondy.info
W4DEX-14D220318042022-12-07 12:57:5832.5094-78.66761247816998Clb=-23.4m/s Type=DFM17 ser=[BC]22031804 Details on http://radiosondy.info
W4DEX-14D220318042022-12-07 12:57:5732.5112-78.67361048917717Clb=-24.8m/s Type=DFM17 ser=[BC]22031804 Details on http://radiosondy.info
W4DEX-14D220318042022-12-07 12:57:5632.5122-78.67741158518093Clb=-25.7m/s Type=DFM17 ser=[BC]22031804 Details on http://radiosondy.info
W4DEX-14D220318042022-12-07 12:57:5532.5137-78.68071197018490Clb=-27.2m/s Type=DFM17 ser=[BC]22031804 Details on http://radiosondy.info
W4DEX-14D220318042022-12-07 12:57:5432.515-78.68341125218907Clb=-29.0m/s Type=DFM17 ser=[BC]22031804 Details on http://radiosondy.info
W4DEX-14D220318042022-12-07 12:57:5332.5156-78.68561135019323Clb=-19.4m/s Type=DFM17 ser=[BC]22031804 Details on http://radiosondy.info
W4DEX-14D220318042022-12-07 12:57:5232.5163-78.68761246319611Clb=-19.2m/s Type=DFM17 ser=[BC]22031804 Details on http://radiosondy.info
W4DEX-14D220318042022-12-07 12:57:5132.518-78.68951455619899Clb=-19.4m/s Type=DFM17 ser=[BC]22031804 Details on http://radiosondy.info
W4DEX-14D220318042022-12-07 12:57:5032.5194-78.69131186720195Clb=-19.7m/s Type=DFM17 ser=[BC]22031804 Details on http://radiosondy.info
W4DEX-14D220318042022-12-07 12:57:4932.5213-78.69621325620809Clb=-20.9m/s Type=DFM17 ser=[BC]22031804 Details on http://radiosondy.info
W4DEX-14D220318042022-12-07 12:57:4732.5228-78.69791452621127Clb=-21.4m/s Type=DFM17 ser=[BC]22031804 Details on http://radiosondy.info
W4DEX-14D220318042022-12-07 12:57:4632.5235-78.69861211921455Clb=-21.7m/s Type=DFM17 ser=[BC]22031804 Details on http://radiosondy.info
W4DEX-14D220318042022-12-07 12:57:4532.5239-78.69931262221785Clb=-22.2m/s Type=DFM17 ser=[BC]22031804 Details on http://radiosondy.info
W4DEX-14D220318042022-12-07 12:57:4432.5244-78.71621922127Clb=-22.6m/s Type=DFM17 ser=[BC]22031804 Details on http://radiosondy.info
W4DEX-14D220318042022-12-07 12:57:4232.525-78.7212922475Clb=-23.2m/s Type=DFM17 ser=[BC]22031804 Details on http://radiosondy.info
W4DEX-14D220318042022-12-07 12:57:3032.5252-78.7001913022828Clb=-23.4m/s Type=DFM17 ser=[BC]22031804 Details on http://radiosondy.info
W4DEX-14D220318042022-12-07 12:57:0532.5248-78.7014834123184Clb=-23.8m/s Type=DFM17 ser=[BC]22031804 Details on http://radiosondy.info
W4DEX-14D220318042022-12-07 12:56:3832.5254-78.7031283523553Clb=-24.9m/s Type=DFM17 ser=[BC]22031804 Details on http://radiosondy.info
W4DEX-14D220318042022-12-07 12:56:1132.5262-78.7042994623938Clb=-25.5m/s Type=DFM17 ser=[BC]22031804 Details on http://radiosondy.info
W4DEX-14D220318042022-12-07 12:55:4332.5258-78.7063785924336Clb=-26.7m/s Type=DFM17 ser=[BC]22031804 Details on http://radiosondy.info
W4DEX-14D220318042022-12-07 12:55:1832.5259-78.70891065724737Clb=-27.2m/s Type=DFM17 ser=[BC]22031804 Details on http://radiosondy.info
W4DEX-14D220318042022-12-07 12:54:5332.5264-78.71141025225148Clb=-27.5m/s Type=DFM17 ser=[BC]22031804 Details on http://radiosondy.info
W4DEX-14D220318042022-12-07 12:54:3132.5268-78.71361025425571Clb=-28.3m/s Type=DFM17 ser=[BC]22031804 Details on http://radiosondy.info
W4DEX-14D220318042022-12-07 12:54:0432.5267-78.7159706326006Clb=-29.5m/s Type=DFM17 ser=[BC]22031804 Details on http://radiosondy.info
W4DEX-14D220318042022-12-07 12:53:4032.5263-78.7187957226457Clb=-29.9m/s Type=DFM17 ser=[BC]22031804 Details on http://radiosondy.info
W4DEX-14D220318042022-12-07 12:53:1232.5262-78.7219908726926Clb=-31.9m/s Type=DFM17 ser=[BC]22031804 Details on http://radiosondy.info
W4DEX-14D220318042022-12-07 12:52:4632.5261-78.7258938527409Clb=-33.0m/s Type=DFM17 ser=[BC]22031804 Details on http://radiosondy.info
W4DEX-14D220318042022-12-07 12:52:1232.5263-78.7295838127897Clb=-33.2m/s Type=DFM17 ser=[BC]22031804 Details on http://radiosondy.info
W4DEX-14D220318042022-12-07 12:51:4032.526-78.7331938928420Clb=-37.0m/s Type=DFM17 ser=[BC]22031804 Details on http://radiosondy.info
W4DEX-14D220318042022-12-07 12:51:1332.5263-78.73719611728987Clb=-42.9m/s Type=DFM17 ser=[BC]22031804 Details on http://radiosondy.info
W4DEX-14D220318042022-12-07 12:50:4632.5265-78.74229113129631Clb=-37.5m/s Type=DFM17 ser=[BC]22031804 Details on http://radiosondy.info
W4DEX-14D220318042022-12-07 12:50:2332.5266-78.7489112630256Clb=-45.7m/s Type=DFM17 ser=[BC]22031804 Details on http://radiosondy.info
W4DEX-14D220318042022-12-07 12:49:5532.5268-78.75369614130811Clb=-37.1m/s Type=DFM17 ser=[BC]22031804 Details on http://radiosondy.info
W4DEX-14D220318042022-12-07 12:49:2732.5271-78.75988914431476Clb=-55.1m/s Type=DFM17 ser=[BC]22031804 Details on http://radiosondy.info
W4DEX-14D220318042022-12-07 12:48:5732.5268-78.76628315432188Clb=-39.4m/s Type=DFM17 ser=[BC]22031804 Details on http://radiosondy.info
W4DEX-14D220318042022-12-07 12:48:2932.5268-78.7739217032858Clb=-46.3m/s Type=DFM17 ser=[BC]22031804 Details on http://radiosondy.info
W4DEX-14D220318042022-12-07 12:48:0032.5268-78.78058416333068Clb=8.0m/s Type=DFM17 ser=[BC]22031804 Details on http://radiosondy.info
W4DEX-14D220318042022-12-07 12:47:3332.5265-78.78768616132952Clb=6.5m/s Type=DFM17 ser=[BC]22031804 Details on http://radiosondy.info
W4DEX-14D220318042022-12-07 12:46:5932.5263-78.79478415732838Clb=7.4m/s Type=DFM17 ser=[BC]22031804 Details on http://radiosondy.info
W4DEX-14D220318042022-12-07 12:46:3232.5255-78.80157515432729Clb=5.4m/s Type=DFM17 ser=[BC]22031804 Details on http://radiosondy.info
W4DEX-14D220318042022-12-07 12:46:0132.5252-78.808210315932626Clb=4.4m/s Type=DFM17 ser=[BC]22031804 Details on http://radiosondy.info
W4DEX-14D220318042022-12-07 12:45:3632.5251-78.81518415632526Clb=4.6m/s Type=DFM17 ser=[BC]22031804 Details on http://radiosondy.info
W4DEX-14D220318042022-12-07 12:45:0632.5252-78.82198516132436Clb=3.5m/s Type=DFM17 ser=[BC]22031804 Details on http://radiosondy.info
W4DEX-14D220318042022-12-07 12:44:3932.5258-78.82899015732345Clb=6.1m/s Type=DFM17 ser=[BC]22031804 Details on http://radiosondy.info
W4DEX-14D220318042022-12-07 12:44:0232.5262-78.83657315032271Clb=6.4m/s Type=DFM17 ser=[BC]22031804 Details on http://radiosondy.info
W4DEX-14D220318042022-12-07 12:43:5032.526-78.84299115932194Clb=0.5m/s Type=DFM17 ser=[BC]22031804 Details on http://radiosondy.info
W4DEX-14D220318042022-12-07 12:43:2832.5252-78.84959615732120Clb=8.4m/s Type=DFM17 ser=[BC]22031804 Details on http://radiosondy.info
W4DEX-14D220318042022-12-07 12:43:1732.5247-78.85657314632050Clb=-1.8m/s Type=DFM17 ser=[BC]22031804 Details on http://radiosondy.info
W4DEX-14D220318042022-12-07 12:43:0232.5246-78.86288315731980Clb=7.7m/s Type=DFM17 ser=[BC]22031804 Details on http://radiosondy.info
W4DEX-14D220318042022-12-07 12:42:4532.5246-78.869610015431899Clb=6.1m/s Type=DFM17 ser=[BC]22031804 Details on http://radiosondy.info
W4DEX-14D220318042022-12-07 12:42:2532.5246-78.87638015631824Clb=6.7m/s Type=DFM17 ser=[BC]22031804 Details on http://radiosondy.info
W4DEX-14D220318042022-12-07 12:42:0332.525-78.88327015031729Clb=1.1m/s Type=DFM17 ser=[BC]22031804 Details on http://radiosondy.info
W4DEX-14D220318042022-12-07 12:41:4832.525-78.88977614131633Clb=8.7m/s Type=DFM17 ser=[BC]22031804 Details on http://radiosondy.info
W4DEX-14D220318042022-12-07 12:41:3332.5252-78.89597914431539Clb=8.3m/s Type=DFM17 ser=[BC]22031804 Details on http://radiosondy.info
W4DEX-14D220318042022-12-07 12:41:1832.5253-78.902110215231438Clb=2.3m/s Type=DFM17 ser=[BC]22031804 Details on http://radiosondy.info
W4DEX-14D220318042022-12-07 12:40:5132.5357-79.110211710427480Clb=5.0m/s Type=DFM17 ser=[BC]22031804 Details on http://radiosondy.info
W4DEX-14D220318042022-12-07 12:40:2032.5359-79.11469310227377Clb=12.1m/s Type=DFM17 ser=[BC]22031804 Details on http://radiosondy.info
W4DEX-14D220318042022-12-07 12:39:4432.536-79.11897510227280Clb=6.7m/s Type=DFM17 ser=[BC]22031804 Details on http://radiosondy.info
W4DEX-14D220318042022-12-07 12:39:0232.5357-79.1232669627188Clb=4.1m/s Type=DFM17 ser=[BC]22031804 Details on http://radiosondy.info
W4DEX-14D220318042022-12-07 12:38:2832.5355-79.1273719127097Clb=3.0m/s Type=DFM17 ser=[BC]22031804 Details on http://radiosondy.info
W4DEX-14D220318042022-12-07 12:37:5432.5358-79.1313829127010Clb=1.1m/s Type=DFM17 ser=[BC]22031804 Details on http://radiosondy.info
W4DEX-14D220318042022-12-07 12:37:2032.5363-79.1351819426923Clb=3.8m/s Type=DFM17 ser=[BC]22031804 Details on http://radiosondy.info
W4DEX-14D220318042022-12-07 12:36:4532.5366-79.1391938526843Clb=11.0m/s Type=DFM17 ser=[BC]22031804 Details on http://radiosondy.info
W4DEX-14D220318042022-12-07 12:36:0932.5363-79.1427907426762Clb=9.9m/s Type=DFM17 ser=[BC]22031804 Details on http://radiosondy.info
W4DEX-14D220318042022-12-07 12:35:3632.5358-79.14581027826679Clb=6.5m/s Type=DFM17 ser=[BC]22031804 Details on http://radiosondy.info
W4DEX-14D220318042022-12-07 12:34:5732.5356-79.14911178026597Clb=3.4m/s Type=DFM17 ser=[BC]22031804 Details on http://radiosondy.info
W4DEX-14D220318042022-12-07 12:34:2032.5357-79.15261107826513Clb=2.5m/s Type=DFM17 ser=[BC]22031804 Details on http://radiosondy.info
W4DEX-14D220318042022-12-07 12:33:4732.5359-79.156997026428Clb=6.9m/s Type=DFM17 ser=[BC]22031804 Details on http://radiosondy.info
W4DEX-14D220318042022-12-07 12:33:1132.5358-79.1591587026339Clb=9.8m/s Type=DFM17 ser=[BC]22031804 Details on http://radiosondy.info
W4DEX-14D220318042022-12-07 12:32:3832.5355-79.162807026253Clb=8.0m/s Type=DFM17 ser=[BC]22031804 Details on http://radiosondy.info
W4DEX-14D220318042022-12-07 12:32:0232.5353-79.1649766126168Clb=8.3m/s Type=DFM17 ser=[BC]22031804 Details on http://radiosondy.info
W4DEX-14D220318042022-12-07 12:31:2732.5348-79.1675655226078Clb=6.3m/s Type=DFM17 ser=[BC]22031804 Details on http://radiosondy.info
W4DEX-14D220318042022-12-07 12:30:4632.5347-79.1696656125994Clb=3.3m/s Type=DFM17 ser=[BC]22031804 Details on http://radiosondy.info
W4DEX-14D220318042022-12-07 12:30:1232.5348-79.1721656325906Clb=2.3m/s Type=DFM17 ser=[BC]22031804 Details on http://radiosondy.info
W4DEX-14D220318042022-12-07 12:29:3232.5352-79.1748756125820Clb=1.3m/s Type=DFM17 ser=[BC]22031804 Details on http://radiosondy.info
W4DEX-14D220318042022-12-07 12:28:5832.5356-79.1773595925734Clb=2.0m/s Type=DFM17 ser=[BC]22031804 Details on http://radiosondy.info
W4DEX-14D220318042022-12-07 12:28:2132.5361-79.1795955925649Clb=6.0m/s Type=DFM17 ser=[BC]22031804 Details on http://radiosondy.info
W4DEX-14D220318042022-12-07 12:27:4332.5368-79.1818976725563Clb=5.9m/s Type=DFM17 ser=[BC]22031804 Details on http://radiosondy.info
W4DEX-14D220318042022-12-07 12:27:0232.5373-79.18451025925477Clb=7.3m/s Type=DFM17 ser=[BC]22031804 Details on http://radiosondy.info
W4DEX-14D220318042022-12-07 12:26:2632.5375-79.187935425389Clb=7.3m/s Type=DFM17 ser=[BC]22031804 Details on http://radiosondy.info
W4DEX-14D220318042022-12-07 12:25:5032.5379-79.1892935725302Clb=6.9m/s Type=DFM17 ser=[BC]22031804 Details on http://radiosondy.info
W4DEX-14D220318042022-12-07 12:25:1432.5382-79.1915886125217Clb=5.5m/s Type=DFM17 ser=[BC]22031804 Details on http://radiosondy.info
W4DEX-14D220318042022-12-07 12:24:3332.5386-79.194886125130Clb=7.2m/s Type=DFM17 ser=[BC]22031804 Details on http://radiosondy.info
W4DEX-14D220318042022-12-07 12:24:0132.5389-79.1966806125042Clb=2.1m/s Type=DFM17 ser=[BC]22031804 Details on http://radiosondy.info
W4DEX-14D220318042022-12-07 12:23:5332.539-79.1992776924957Clb=4.6m/s Type=DFM17 ser=[BC]22031804 Details on http://radiosondy.info
W4DEX-14D220318042022-12-07 12:23:4432.5393-79.202785724866Clb=6.9m/s Type=DFM17 ser=[BC]22031804 Details on http://radiosondy.info
W4DEX-14D220318042022-12-07 12:23:2132.5395-79.2044715924781Clb=7.4m/s Type=DFM17 ser=[BC]22031804 Details on http://radiosondy.info
W4DEX-14D220318042022-12-07 12:23:0132.5396-79.2069786524696Clb=9.1m/s Type=DFM17 ser=[BC]22031804 Details on http://radiosondy.info
W4DEX-14D220318042022-12-07 12:22:5132.5397-79.2096715924603Clb=7.1m/s Type=DFM17 ser=[BC]22031804 Details on http://radiosondy.info
W4DEX-14D220318042022-12-07 12:22:4732.5394-79.2121945924508Clb=5.2m/s Type=DFM17 ser=[BC]22031804 Details on http://radiosondy.info
W4DEX-14D220318042022-12-07 12:22:4132.5388-79.21441055624419Clb=3.2m/s Type=DFM17 ser=[BC]22031804 Details on http://radiosondy.info
W4DEX-14D220318042022-12-07 12:22:0732.5378-79.2164845424332Clb=2.9m/s Type=DFM17 ser=[BC]22031804 Details on http://radiosondy.info
W4DEX-14D220318042022-12-07 12:21:5632.5481-79.25551413921220Clb=8.1m/s Type=DFM17 ser=[BC]22031804 Details on http://radiosondy.info
W4DEX-14D220318042022-12-07 12:21:2532.549-79.25661664421138Clb=5.6m/s Type=DFM17 ser=[BC]22031804 Details on http://radiosondy.info
W4DEX-14D220318042022-12-07 12:20:5432.5504-79.25791515021051Clb=6.8m/s Type=DFM17 ser=[BC]22031804 Details on http://radiosondy.info
W4DEX-14D220318042022-12-07 12:20:2032.5517-79.25941244620968Clb=6.0m/s Type=DFM17 ser=[BC]22031804 Details on http://radiosondy.info
W4DEX-14D220318042022-12-07 12:19:5132.5529-79.26091404120896Clb=4.7m/s Type=DFM17 ser=[BC]22031804 Details on http://radiosondy.info
W4DEX-14D220318042022-12-07 12:19:1332.5535-79.26261095220822Clb=5.2m/s Type=DFM17 ser=[BC]22031804 Details on http://radiosondy.info
W4DEX-14D220318042022-12-07 12:18:4032.5543-79.2646964620755Clb=6.1m/s Type=DFM17 ser=[BC]22031804 Details on http://radiosondy.info
W4DEX-14D220318042022-12-07 12:18:0732.5549-79.26641124820686Clb=3.3m/s Type=DFM17 ser=[BC]22031804 Details on http://radiosondy.info
W4DEX-14D220318042022-12-07 12:17:3832.5558-79.26831425020621Clb=3.9m/s Type=DFM17 ser=[BC]22031804 Details on http://radiosondy.info
W4DEX-14D220318042022-12-07 12:17:0832.5566-79.27021345420558Clb=4.8m/s Type=DFM17 ser=[BC]22031804 Details on http://radiosondy.info
W4DEX-14D220318042022-12-07 12:16:4132.5571-79.2724845420490Clb=3.2m/s Type=DFM17 ser=[BC]22031804 Details on http://radiosondy.info
W4DEX-14D220318042022-12-07 12:16:1232.5573-79.2747816120422Clb=3.7m/s Type=DFM17 ser=[BC]22031804 Details on http://radiosondy.info
W4DEX-14D220318042022-12-07 12:15:4732.5577-79.2774996120350Clb=6.3m/s Type=DFM17 ser=[BC]22031804 Details on http://radiosondy.info
W4DEX-14D220318042022-12-07 12:15:1932.5584-79.27991155620265Clb=6.5m/s Type=DFM17 ser=[BC]22031804 Details on http://radiosondy.info
W4DEX-14D220318042022-12-07 12:14:5232.5591-79.28211245020179Clb=4.6m/s Type=DFM17 ser=[BC]22031804 Details on http://radiosondy.info
W4DEX-14D220318042022-12-07 12:14:2132.56-79.2841354320099Clb=7.6m/s Type=DFM17 ser=[BC]22031804 Details on http://radiosondy.info
W4DEX-14D220318042022-12-07 12:13:5332.5607-79.28561194420013Clb=5.4m/s Type=DFM17 ser=[BC]22031804 Details on http://radiosondy.info
W4DEX-14D220318042022-12-07 12:13:2232.5617-79.2871224619928Clb=7.0m/s Type=DFM17 ser=[BC]22031804 Details on http://radiosondy.info
W4DEX-14D220318042022-12-07 12:12:4832.5631-79.28831585919840Clb=5.2m/s Type=DFM17 ser=[BC]22031804 Details on http://radiosondy.info
W4DEX-14D220318042022-12-07 12:12:1232.5649-79.28971476719757Clb=6.0m/s Type=DFM17 ser=[BC]22031804 Details on http://radiosondy.info
W4DEX-14D220318042022-12-07 12:11:3932.5668-79.29171267019683Clb=4.2m/s Type=DFM17 ser=[BC]22031804 Details on http://radiosondy.info
W4DEX-14D220318042022-12-07 12:11:0632.5687-79.29371437419614Clb=3.2m/s Type=DFM17 ser=[BC]22031804 Details on http://radiosondy.info
W4DEX-14D220318042022-12-07 12:10:3432.5706-79.29611306919546Clb=4.5m/s Type=DFM17 ser=[BC]22031804 Details on http://radiosondy.info
W4DEX-14D220318042022-12-07 12:09:5532.5722-79.29851266319480Clb=5.0m/s Type=DFM17 ser=[BC]22031804 Details on http://radiosondy.info
W4DEX-14D220318042022-12-07 12:09:2232.5733-79.30081215419413Clb=5.5m/s Type=DFM17 ser=[BC]22031804 Details on http://radiosondy.info
W4DEX-14D220318042022-12-07 12:08:4832.574-79.30321035719340Clb=5.1m/s Type=DFM17 ser=[BC]22031804 Details on http://radiosondy.info
W4DEX-14D220318042022-12-07 12:08:1632.5745-79.30551035419269Clb=2.0m/s Type=DFM17 ser=[BC]22031804 Details on http://radiosondy.info
W4DEX-14D220318042022-12-07 12:07:4232.5751-79.30781195419198Clb=3.9m/s Type=DFM17 ser=[BC]22031804 Details on http://radiosondy.info
W4DEX-14D220318042022-12-07 12:07:1132.5757-79.311195719130Clb=4.4m/s Type=DFM17 ser=[BC]22031804 Details on http://radiosondy.info
W4DEX-14D220318042022-12-07 12:06:4232.5764-79.3123876319062Clb=3.2m/s Type=DFM17 ser=[BC]22031804 Details on http://radiosondy.info
W4DEX-14D220318042022-12-07 12:06:0832.5771-79.31491137418993Clb=5.2m/s Type=DFM17 ser=[BC]22031804 Details on http://radiosondy.info
W4DEX-14D220318042022-12-07 12:05:3732.5781-79.3181127018917Clb=5.4m/s Type=DFM17 ser=[BC]22031804 Details on http://radiosondy.info
W4DEX-14D220318042022-12-07 12:05:0532.5793-79.32071267018842Clb=5.6m/s Type=DFM17 ser=[BC]22031804 Details on http://radiosondy.info
W4DEX-14D220318042022-12-07 12:04:3332.5806-79.32341107018766Clb=5.6m/s Type=DFM17 ser=[BC]22031804 Details on http://radiosondy.info
W4DEX-14D220318042022-12-07 12:04:0132.5818-79.32611257218695Clb=4.0m/s Type=DFM17 ser=[BC]22031804 Details on http://radiosondy.info
W4DEX-14D220318042022-12-07 12:03:4632.5832-79.32891138018621Clb=4.7m/s Type=DFM17 ser=[BC]22031804 Details on http://radiosondy.info
W4DEX-14D220318042022-12-07 12:03:3832.5846-79.3321198718545Clb=5.1m/s Type=DFM17 ser=[BC]22031804 Details on http://radiosondy.info
W4DEX-14D220318042022-12-07 12:03:2432.5862-79.33531209318472Clb=4.2m/s Type=DFM17 ser=[BC]22031804 Details on http://radiosondy.info
W4DEX-14D220318042022-12-07 12:03:0432.5878-79.33891188918400Clb=4.8m/s Type=DFM17 ser=[BC]22031804 Details on http://radiosondy.info
W4DEX-14D220318042022-12-07 12:02:5232.6002-79.37371028517752Clb=3.0m/s Type=DFM17 ser=[BC]22031804 Details on http://radiosondy.info
W4DEX-14D220318042022-12-07 12:02:5132.6011-79.37721018117681Clb=5.8m/s Type=DFM17 ser=[BC]22031804 Details on http://radiosondy.info
W4DEX-14D220318042022-12-07 12:02:5032.6018-79.38071067817610Clb=4.0m/s Type=DFM17 ser=[BC]22031804 Details on http://radiosondy.info
W4DEX-14D220318042022-12-07 12:02:4832.6025-79.38411097817542Clb=2.3m/s Type=DFM17 ser=[BC]22031804 Details on http://radiosondy.info
W4DEX-14D220318042022-12-07 12:02:3032.6033-79.38741157617474Clb=5.9m/s Type=DFM17 ser=[BC]22031804 Details on http://radiosondy.info
W4DEX-14D220318042022-12-07 12:02:0632.6046-79.39041238317404Clb=4.5m/s Type=DFM17 ser=[BC]22031804 Details on http://radiosondy.info
W4DEX-14D220318042022-12-07 12:01:5932.6063-79.39351268917336Clb=3.5m/s Type=DFM17 ser=[BC]22031804 Details on http://radiosondy.info
W4DEX-14D220318042022-12-07 12:01:5832.6082-79.39671339117267Clb=4.9m/s Type=DFM17 ser=[BC]22031804 Details on http://radiosondy.info
W4DEX-14D220318042022-12-07 12:01:5632.6103-79.399812210017197Clb=3.9m/s Type=DFM17 ser=[BC]22031804 Details on http://radiosondy.info
W4DEX-14D220318042022-12-07 12:01:5432.6125-79.403512410417118Clb=5.5m/s Type=DFM17 ser=[BC]22031804 Details on http://radiosondy.info
W4DEX-14D220318042022-12-07 12:01:5232.6146-79.407312510617043Clb=4.6m/s Type=DFM17 ser=[BC]22031804 Details on http://radiosondy.info
W4DEX-14D220318042022-12-07 12:01:5132.6166-79.411311510416963Clb=6.1m/s Type=DFM17 ser=[BC]22031804 Details on http://radiosondy.info
W4DEX-14D220318042022-12-07 12:01:4932.6184-79.415311810216880Clb=4.4m/s Type=DFM17 ser=[BC]22031804 Details on http://radiosondy.info
W4DEX-14D220318042022-12-07 12:01:4832.6201-79.419411210416796Clb=4.1m/s Type=DFM17 ser=[BC]22031804 Details on http://radiosondy.info
W4DEX-14D220318042022-12-07 12:01:4632.6218-79.423511910216716Clb=4.3m/s Type=DFM17 ser=[BC]22031804 Details on http://radiosondy.info
W4DEX-14D220318042022-12-07 12:01:4532.6233-79.427611210216634Clb=4.7m/s Type=DFM17 ser=[BC]22031804 Details on http://radiosondy.info
W4DEX-14D220318042022-12-07 12:01:3732.6247-79.431810710416558Clb=6.2m/s Type=DFM17 ser=[BC]22031804 Details on http://radiosondy.info
W4DEX-14D220318042022-12-07 12:01:1432.626-79.436110710016482Clb=4.4m/s Type=DFM17 ser=[BC]22031804 Details on http://radiosondy.info
W4DEX-14D220318042022-12-07 12:00:4332.6271-79.44031119616408Clb=4.9m/s Type=DFM17 ser=[BC]22031804 Details on http://radiosondy.info
W4DEX-14D220318042022-12-07 12:00:1532.6281-79.44451099316338Clb=5.6m/s Type=DFM17 ser=[BC]22031804 Details on http://radiosondy.info
W4DEX-14D220318042022-12-07 11:59:4232.6291-79.44841018716271Clb=3.4m/s Type=DFM17 ser=[BC]22031804 Details on http://radiosondy.info
W4DEX-14D220318042022-12-07 11:59:0932.6298-79.4521978316205Clb=4.9m/s Type=DFM17 ser=[BC]22031804 Details on http://radiosondy.info
W4DEX-14D220318042022-12-07 11:58:3632.6303-79.45581088316141Clb=5.3m/s Type=DFM17 ser=[BC]22031804 Details on http://radiosondy.info
W4DEX-14D220318042022-12-07 11:58:0532.6309-79.45941008016077Clb=3.7m/s Type=DFM17 ser=[BC]22031804 Details on http://radiosondy.info
W4DEX-14D220318042022-12-07 11:57:2832.6318-79.46271128016013Clb=4.0m/s Type=DFM17 ser=[BC]22031804 Details on http://radiosondy.info
W4DEX-14D220318042022-12-07 11:56:5332.6328-79.46611158115949Clb=5.3m/s Type=DFM17 ser=[BC]22031804 Details on http://radiosondy.info
W4DEX-14D220318042022-12-07 11:56:2232.6337-79.46951078315886Clb=5.0m/s Type=DFM17 ser=[BC]22031804 Details on http://radiosondy.info
W4DEX-14D220318042022-12-07 11:55:5332.6349-79.47291128315819Clb=3.3m/s Type=DFM17 ser=[BC]22031804 Details on http://radiosondy.info
W4DEX-14D220318042022-12-07 11:55:2432.6361-79.47631258315753Clb=3.9m/s Type=DFM17 ser=[BC]22031804 Details on http://radiosondy.info
W4DEX-14D220318042022-12-07 11:54:5632.6375-79.47961188715686Clb=4.8m/s Type=DFM17 ser=[BC]22031804 Details on http://radiosondy.info
W4DEX-14D220318042022-12-07 11:54:3032.6391-79.4831119115624Clb=4.6m/s Type=DFM17 ser=[BC]22031804 Details on http://radiosondy.info
W4DEX-14D220318042022-12-07 11:53:5932.6407-79.48651179115556Clb=5.4m/s Type=DFM17 ser=[BC]22031804 Details on http://radiosondy.info
W4DEX-14D220318042022-12-07 11:53:2932.6424-79.491269615489Clb=4.4m/s Type=DFM17 ser=[BC]22031804 Details on http://radiosondy.info
W4DEX-14D220318042022-12-07 11:53:0232.6441-79.49381289615418Clb=4.5m/s Type=DFM17 ser=[BC]22031804 Details on http://radiosondy.info
W4DEX-14D220318042022-12-07 11:52:3032.6457-79.49761179115347Clb=3.8m/s Type=DFM17 ser=[BC]22031804 Details on http://radiosondy.info
W4DEX-14D220318042022-12-07 11:52:0132.6472-79.50121118515271Clb=5.0m/s Type=DFM17 ser=[BC]22031804 Details on http://radiosondy.info
W4DEX-14D220318042022-12-07 11:51:4632.6483-79.50471108315196Clb=5.0m/s Type=DFM17 ser=[BC]22031804 Details on http://radiosondy.info
W4DEX-14D220318042022-12-07 11:51:3132.6493-79.50821028115120Clb=5.4m/s Type=DFM17 ser=[BC]22031804 Details on http://radiosondy.info
W4DEX-14D220318042022-12-07 11:51:1832.6721-79.561512611514138Clb=3.9m/s Type=DFM17 ser=[BC]22031804 Details on http://radiosondy.info
W4DEX-14D220318042022-12-07 11:51:1732.6746-79.565612712014080Clb=3.4m/s Type=DFM17 ser=[BC]22031804 Details on http://radiosondy.info
W4DEX-14D220318042022-12-07 11:51:1632.6772-79.5712712614018Clb=4.1m/s Type=DFM17 ser=[BC]22031804 Details on http://radiosondy.info
W4DEX-14D220318042022-12-07 11:51:1532.6798-79.574712213113953Clb=5.5m/s Type=DFM17 ser=[BC]22031804 Details on http://radiosondy.info
W4DEX-14D220318042022-12-07 11:51:1432.6824-79.579712113013887Clb=5.8m/s Type=DFM17 ser=[BC]22031804 Details on http://radiosondy.info
W4DEX-14D220318042022-12-07 11:51:1332.6848-79.584712312613815Clb=4.3m/s Type=DFM17 ser=[BC]22031804 Details on http://radiosondy.info
W4DEX-14D220318042022-12-07 11:51:1232.6869-79.589611912213747Clb=5.6m/s Type=DFM17 ser=[BC]22031804 Details on http://radiosondy.info
W4DEX-14D220318042022-12-07 11:51:0532.6888-79.594611812013679Clb=4.8m/s Type=DFM17 ser=[BC]22031804 Details on http://radiosondy.info
W4DEX-14D220318042022-12-07 11:50:4232.6908-79.599411411913610Clb=5.6m/s Type=DFM17 ser=[BC]22031804 Details on http://radiosondy.info
W4DEX-14D220318042022-12-07 11:50:1532.6925-79.604211411913541Clb=3.4m/s Type=DFM17 ser=[BC]22031804 Details on http://radiosondy.info
W4DEX-14D220318042022-12-07 11:49:4832.6941-79.60912011113460Clb=7.5m/s Type=DFM17 ser=[BC]22031804 Details on http://radiosondy.info
W4DEX-14D220318042022-12-07 11:49:2232.6959-79.613611610913380Clb=7.2m/s Type=DFM17 ser=[BC]22031804 Details on http://radiosondy.info
W4DEX-14D220318042022-12-07 11:48:5432.6977-79.617811510213311Clb=4.1m/s Type=DFM17 ser=[BC]22031804 Details on http://radiosondy.info
W4DEX-14D220318042022-12-07 11:48:2732.6998-79.621713110413241Clb=4.9m/s Type=DFM17 ser=[BC]22031804 Details on http://radiosondy.info
W4DEX-14D220318042022-12-07 11:47:5932.7021-79.625313010913177Clb=4.8m/s Type=DFM17 ser=[BC]22031804 Details on http://radiosondy.info
W4DEX-14D220318042022-12-07 11:47:3032.7048-79.629113011513116Clb=5.0m/s Type=DFM17 ser=[BC]22031804 Details on http://radiosondy.info
W4DEX-14D220318042022-12-07 11:47:0132.7075-79.63312711913058Clb=2.6m/s Type=DFM17 ser=[BC]22031804 Details on http://radiosondy.info
W4DEX-14D220318042022-12-07 11:46:3332.7102-79.637213311713001Clb=3.1m/s Type=DFM17 ser=[BC]22031804 Details on http://radiosondy.info
W4DEX-14D220318042022-12-07 11:46:0432.7129-79.641213511912943Clb=4.1m/s Type=DFM17 ser=[BC]22031804 Details on http://radiosondy.info
W4DEX-14D220318042022-12-07 11:45:3732.7158-79.645213412212888Clb=3.3m/s Type=DFM17 ser=[BC]22031804 Details on http://radiosondy.info
W4DEX-14D220318042022-12-07 11:45:0732.7188-79.649313112212828Clb=3.6m/s Type=DFM17 ser=[BC]22031804 Details on http://radiosondy.info
W4DEX-14D220318042022-12-07 11:44:4232.7218-79.653412812612768Clb=3.7m/s Type=DFM17 ser=[BC]22031804 Details on http://radiosondy.info
W4DEX-14D220318042022-12-07 11:44:1132.725-79.657413112812709Clb=5.0m/s Type=DFM17 ser=[BC]22031804 Details on http://radiosondy.info
W4DEX-14D220318042022-12-07 11:44:0132.7283-79.661513412612648Clb=4.8m/s Type=DFM17 ser=[BC]22031804 Details on http://radiosondy.info
W4DEX-14D220318042022-12-07 11:43:5732.7316-79.665613413012585Clb=4.8m/s Type=DFM17 ser=[BC]22031804 Details on http://radiosondy.info
W4DEX-14D220318042022-12-07 11:43:5332.7349-79.669812813012521Clb=4.4m/s Type=DFM17 ser=[BC]22031804 Details on http://radiosondy.info
W4DEX-14D220318042022-12-07 11:43:4832.7382-79.67413312412458Clb=3.2m/s Type=DFM17 ser=[BC]22031804 Details on http://radiosondy.info
W4DEX-14D220318042022-12-07 11:43:4532.7413-79.67813111712394Clb=3.6m/s Type=DFM17 ser=[BC]22031804 Details on http://radiosondy.info
W4DEX-14D220318042022-12-07 11:43:3132.7441-79.68213611512326Clb=5.1m/s Type=DFM17 ser=[BC]22031804 Details on http://radiosondy.info
W4DEX-14D220318042022-12-07 11:43:1932.7469-79.685912911312258Clb=4.1m/s Type=DFM17 ser=[BC]22031804 Details on http://radiosondy.info
W4DEX-14D220318042022-12-07 11:43:0332.7495-79.689712610912192Clb=5.5m/s Type=DFM17 ser=[BC]22031804 Details on http://radiosondy.info
W4DEX-14D220318042022-12-07 11:42:5132.7521-79.693512710912121Clb=5.1m/s Type=DFM17 ser=[BC]22031804 Details on http://radiosondy.info
W4DEX-14D220318042022-12-07 11:42:3732.7545-79.697412410712053Clb=3.8m/s Type=DFM17 ser=[BC]22031804 Details on http://radiosondy.info
W4DEX-14D220318042022-12-07 11:42:1232.7569-79.701212011111984Clb=5.2m/s Type=DFM17 ser=[BC]22031804 Details on http://radiosondy.info
W4DEX-14D220318042022-12-07 11:41:4632.7593-79.705213311111917Clb=5.2m/s Type=DFM17 ser=[BC]22031804 Details on http://radiosondy.info
W4DEX-14D220318042022-12-07 11:41:2132.7617-79.709312611311847Clb=4.5m/s Type=DFM17 ser=[BC]22031804 Details on http://radiosondy.info
W4DEX-14D220318042022-12-07 11:40:5532.764-79.713612611311779Clb=5.8m/s Type=DFM17 ser=[BC]22031804 Details on http://radiosondy.info
W4DEX-14D220318042022-12-07 11:40:2932.7662-79.717812310911703Clb=5.1m/s Type=DFM17 ser=[BC]22031804 Details on http://radiosondy.info
W4DEX-14D220318042022-12-07 11:40:0232.7684-79.721912511111634Clb=5.5m/s Type=DFM17 ser=[BC]22031804 Details on http://radiosondy.info
W4DEX-14D220318042022-12-07 11:39:5132.7706-79.726112610711567Clb=4.2m/s Type=DFM17 ser=[BC]22031804 Details on http://radiosondy.info
W4DEX-14D220318042022-12-07 11:39:2432.7726-79.730311910611496Clb=3.9m/s Type=DFM17 ser=[BC]22031804 Details on http://radiosondy.info
W4DEX-14D220318042022-12-07 11:38:5632.7745-79.734311810711428Clb=4.6m/s Type=DFM17 ser=[BC]22031804 Details on http://radiosondy.info
W4DEX-14D220318042022-12-07 11:38:2732.7766-79.738412410911364Clb=5.7m/s Type=DFM17 ser=[BC]22031804 Details on http://radiosondy.info
W4DEX-14D220318042022-12-07 11:38:0132.7787-79.742512210911295Clb=5.6m/s Type=DFM17 ser=[BC]22031804 Details on http://radiosondy.info
W4DEX-14D220318042022-12-07 11:37:2832.7809-79.746711810911225Clb=4.3m/s Type=DFM17 ser=[BC]22031804 Details on http://radiosondy.info
W4DEX-14D220318042022-12-07 11:36:5932.783-79.750812210711161Clb=4.2m/s Type=DFM17 ser=[BC]22031804 Details on http://radiosondy.info
W4DEX-14D220318042022-12-07 11:36:3032.785-79.754812910711099Clb=4.5m/s Type=DFM17 ser=[BC]22031804 Details on http://radiosondy.info
W4DEX-14D220318042022-12-07 11:36:0132.7871-79.758911710711035Clb=4.0m/s Type=DFM17 ser=[BC]22031804 Details on http://radiosondy.info
W4DEX-14D220318042022-12-07 11:35:4632.7892-79.762912310710970Clb=4.2m/s Type=DFM17 ser=[BC]22031804 Details on http://radiosondy.info
W4DEX-14D220318042022-12-07 11:35:3232.7913-79.76712510710906Clb=3.3m/s Type=DFM17 ser=[BC]22031804 Details on http://radiosondy.info
W4DEX-14D220318042022-12-07 11:35:1632.7935-79.77112210610842Clb=3.6m/s Type=DFM17 ser=[BC]22031804 Details on http://radiosondy.info
W4DEX-14D220318042022-12-07 11:35:0132.7958-79.774912310410783Clb=4.0m/s Type=DFM17 ser=[BC]22031804 Details on http://radiosondy.info
W4DEX-14D220318042022-12-07 11:34:4632.798-79.778712310610718Clb=4.1m/s Type=DFM17 ser=[BC]22031804 Details on http://radiosondy.info
W4DEX-14D220318042022-12-07 11:34:4232.8002-79.782512610410657Clb=2.7m/s Type=DFM17 ser=[BC]22031804 Details on http://radiosondy.info
W4DEX-14D220318042022-12-07 11:34:4132.8044-79.790212310610535Clb=3.4m/s Type=DFM17 ser=[BC]22031804 Details on http://radiosondy.info
W4DEX-14D220318042022-12-07 11:34:3932.8065-79.79421159810472Clb=4.5m/s Type=DFM17 ser=[BC]22031804 Details on http://radiosondy.info
W4DEX-14D220318042022-12-07 11:34:2632.8086-79.79781279610406Clb=2.5m/s Type=DFM17 ser=[BC]22031804 Details on http://radiosondy.info
W4DEX-14D220318042022-12-07 11:34:0132.8106-79.80131278910347Clb=3.7m/s Type=DFM17 ser=[BC]22031804 Details on http://radiosondy.info
W4DEX-14D220318042022-12-07 11:33:3732.8125-79.80461249110284Clb=2.6m/s Type=DFM17 ser=[BC]22031804 Details on http://radiosondy.info
W4DEX-14D220318042022-12-07 11:33:1332.8146-79.80781329310218Clb=4.3m/s Type=DFM17 ser=[BC]22031804 Details on http://radiosondy.info
W4DEX-14D220318042022-12-07 11:32:4932.8167-79.8111268910157Clb=4.5m/s Type=DFM17 ser=[BC]22031804 Details on http://radiosondy.info
W4DEX-14D220318042022-12-07 11:32:2232.8188-79.81411289310093Clb=3.4m/s Type=DFM17 ser=[BC]22031804 Details on http://radiosondy.info
W4DEX-14D220318042022-12-07 11:32:0132.821-79.81741309310028Clb=4.6m/s Type=DFM17 ser=[BC]22031804 Details on http://radiosondy.info
W4DEX-14D220318042022-12-07 11:31:4632.8232-79.8206129919963Clb=5.1m/s Type=DFM17 ser=[BC]22031804 Details on http://radiosondy.info
W4DEX-14D220318042022-12-07 11:31:3132.8254-79.8236133919898Clb=4.6m/s Type=DFM17 ser=[BC]22031804 Details on http://radiosondy.info
W4DEX-14D220318042022-12-07 11:31:1632.8277-79.8266137919829Clb=4.6m/s Type=DFM17 ser=[BC]22031804 Details on http://radiosondy.info
W4DEX-14D220318042022-12-07 11:31:0132.83-79.8295141879764Clb=3.7m/s Type=DFM17 ser=[BC]22031804 Details on http://radiosondy.info
W4DEX-14D220318042022-12-07 11:30:4632.8322-79.8324127859701Clb=3.4m/s Type=DFM17 ser=[BC]22031804 Details on http://radiosondy.info
W4DEX-14D220318042022-12-07 11:30:3132.8342-79.8353131839637Clb=4.6m/s Type=DFM17 ser=[BC]22031804 Details on http://radiosondy.info
W4DEX-14D220318042022-12-07 11:30:1632.8363-79.8381126859572Clb=4.1m/s Type=DFM17 ser=[BC]22031804 Details on http://radiosondy.info
W4DEX-14D220318042022-12-07 11:30:0132.8384-79.841139839509Clb=3.4m/s Type=DFM17 ser=[BC]22031804 Details on http://radiosondy.info
W4DEX-14D220318042022-12-07 11:29:5432.8404-79.8438136819447Clb=3.3m/s Type=DFM17 ser=[BC]22031804 Details on http://radiosondy.info
W4DEX-14D220318042022-12-07 11:29:5332.8424-79.8465128839381Clb=4.1m/s Type=DFM17 ser=[BC]22031804 Details on http://radiosondy.info
W4DEX-14D220318042022-12-07 11:29:4432.8444-79.8494127819315Clb=3.7m/s Type=DFM17 ser=[BC]22031804 Details on http://radiosondy.info
W4DEX-14D220318042022-12-07 11:29:2632.8463-79.8521139809247Clb=4.8m/s Type=DFM17 ser=[BC]22031804 Details on http://radiosondy.info
W4DEX-14D220318042022-12-07 11:29:0432.8483-79.8548127789178Clb=5.0m/s Type=DFM17 ser=[BC]22031804 Details on http://radiosondy.info
W4DEX-14D220318042022-12-07 11:28:4332.85-79.8575130769111Clb=5.2m/s Type=DFM17 ser=[BC]22031804 Details on http://radiosondy.info
W4DEX-14D220318042022-12-07 11:28:2032.8517-79.8602127709039Clb=5.5m/s Type=DFM17 ser=[BC]22031804 Details on http://radiosondy.info
W4DEX-14D220318042022-12-07 11:28:0132.8533-79.8627120678960Clb=5.0m/s Type=DFM17 ser=[BC]22031804 Details on http://radiosondy.info
W4DEX-14D220318042022-12-07 11:27:4632.8548-79.865125748877Clb=5.2m/s Type=DFM17 ser=[BC]22031804 Details on http://radiosondy.info
W4DEX-14D220318042022-12-07 11:27:3132.8563-79.8677126788807Clb=4.2m/s Type=DFM17 ser=[BC]22031804 Details on http://radiosondy.info
W4DEX-14D220318042022-12-07 11:27:1632.8578-79.8707116788737Clb=4.5m/s Type=DFM17 ser=[BC]22031804 Details on http://radiosondy.info
W4DEX-14D220318042022-12-07 11:27:0232.8592-79.8737112808674Clb=3.9m/s Type=DFM17 ser=[BC]22031804 Details on http://radiosondy.info
W4DEX-14D220318042022-12-07 11:26:4632.8606-79.8768123708598Clb=5.0m/s Type=DFM17 ser=[BC]22031804 Details on http://radiosondy.info
W4DEX-14D220318042022-12-07 11:26:3132.8619-79.8795122698521Clb=3.9m/s Type=DFM17 ser=[BC]22031804 Details on http://radiosondy.info
W4DEX-14D220318042022-12-07 11:26:1632.8631-79.8821119658451Clb=4.5m/s Type=DFM17 ser=[BC]22031804 Details on http://radiosondy.info
W4DEX-14D220318042022-12-07 11:26:0132.8642-79.8847119658382Clb=5.4m/s Type=DFM17 ser=[BC]22031804 Details on http://radiosondy.info
W4DEX-14D220318042022-12-07 11:25:4632.8653-79.8873109658320Clb=3.0m/s Type=DFM17 ser=[BC]22031804 Details on http://radiosondy.info
W4DEX-14D220318042022-12-07 11:25:3132.8664-79.8898110618247Clb=4.6m/s Type=DFM17 ser=[BC]22031804 Details on http://radiosondy.info
W4DEX-14D220318042022-12-07 11:25:2432.8674-79.8923116638163Clb=5.5m/s Type=DFM17 ser=[BC]22031804 Details on http://radiosondy.info
W4DEX-14D220318042022-12-07 11:25:1532.8684-79.8948116618083Clb=4.4m/s Type=DFM17 ser=[BC]22031804 Details on http://radiosondy.info
W4DEX-14D220318042022-12-07 11:24:5632.8694-79.8972122578013Clb=3.6m/s Type=DFM17 ser=[BC]22031804 Details on http://radiosondy.info
W4DEX-14D220318042022-12-07 11:24:3832.8704-79.8994112577946Clb=4.3m/s Type=DFM17 ser=[BC]22031804 Details on http://radiosondy.info
W4DEX-14D220318042022-12-07 11:24:1732.8714-79.9017112597880Clb=5.3m/s Type=DFM17 ser=[BC]22031804 Details on http://radiosondy.info
W4DEX-14D220318042022-12-07 11:24:0132.8723-79.9041104577798Clb=8.4m/s Type=DFM17 ser=[BC]22031804 Details on http://radiosondy.info
W4DEX-14D220318042022-12-07 11:23:4632.8731-79.9064128617710Clb=5.9m/s Type=DFM17 ser=[BC]22031804 Details on http://radiosondy.info
W4DEX-14D220318042022-12-07 11:23:3132.8741-79.9088113597629Clb=6.2m/s Type=DFM17 ser=[BC]22031804 Details on http://radiosondy.info
W4DEX-14D220318042022-12-07 11:23:1632.8749-79.9112106577564Clb=4.6m/s Type=DFM17 ser=[BC]22031804 Details on http://radiosondy.info
W4DEX-14D220318042022-12-07 11:23:0132.8757-79.9135101597497Clb=5.9m/s Type=DFM17 ser=[BC]22031804 Details on http://radiosondy.info
W4DEX-14D220318042022-12-07 11:22:4632.8764-79.9161105567417Clb=2.7m/s Type=DFM17 ser=[BC]22031804 Details on http://radiosondy.info
W4DEX-14D220318042022-12-07 11:22:3132.8772-79.9183112547330Clb=3.5m/s Type=DFM17 ser=[BC]22031804 Details on http://radiosondy.info
W4DEX-14D220318042022-12-07 11:22:1632.8779-79.9205123567259Clb=4.6m/s Type=DFM17 ser=[BC]22031804 Details on http://radiosondy.info
W4DEX-14D220318042022-12-07 11:22:0132.8787-79.9228120567189Clb=4.9m/s Type=DFM17 ser=[BC]22031804 Details on http://radiosondy.info
W4DEX-14D220318042022-12-07 11:21:4632.8794-79.9251119567100Clb=5.6m/s Type=DFM17 ser=[BC]22031804 Details on http://radiosondy.info
W4DEX-14D220318042022-12-07 11:21:3132.8798-79.927487547010Clb=5.9m/s Type=DFM17 ser=[BC]22031804 Details on http://radiosondy.info
W4DEX-14D220318042022-12-07 11:21:1632.8803-79.9297116546924Clb=4.6m/s Type=DFM17 ser=[BC]22031804 Details on http://radiosondy.info
W4DEX-14D220318042022-12-07 11:21:0232.8808-79.9319123486834Clb=4.9m/s Type=DFM17 ser=[BC]22031804 Details on http://radiosondy.info
W4DEX-14D220318042022-12-07 11:20:5032.8811-79.934122506745Clb=4.7m/s Type=DFM17 ser=[BC]22031804 Details on http://radiosondy.info
W4DEX-14D220318042022-12-07 11:20:3332.8817-79.936123546659Clb=7.1m/s Type=DFM17 ser=[BC]22031804 Details on http://radiosondy.info
W4DEX-14D220318042022-12-07 11:20:1632.8821-79.9383102436572Clb=8.0m/s Type=DFM17 ser=[BC]22031804 Details on http://radiosondy.info
W4DEX-14D220318042022-12-07 11:20:0132.8823-79.94132396484Clb=5.6m/s Type=DFM17 ser=[BC]22031804 Details on http://radiosondy.info
W4DEX-14D220318042022-12-07 11:19:4632.8826-79.941790416396Clb=4.5m/s Type=DFM17 ser=[BC]22031804 Details on http://radiosondy.info
W4DEX-14D220318042022-12-07 11:19:3132.8829-79.9434102356324Clb=4.5m/s Type=DFM17 ser=[BC]22031804 Details on http://radiosondy.info
W4DEX-14D220318042022-12-07 11:19:1632.8831-79.9449117436254Clb=4.2m/s Type=DFM17 ser=[BC]22031804 Details on http://radiosondy.info
W4DEX-14D220318042022-12-07 11:19:0132.8832-79.9468101486181Clb=3.8m/s Type=DFM17 ser=[BC]22031804 Details on http://radiosondy.info
W4DEX-14D220318042022-12-07 11:18:4632.8836-79.9488120466105Clb=3.8m/s Type=DFM17 ser=[BC]22031804 Details on http://radiosondy.info
W4DEX-14D220318042022-12-07 11:18:3132.8838-79.9509117446018Clb=5.1m/s Type=DFM17 ser=[BC]22031804 Details on http://radiosondy.info
W4DEX-14D220318042022-12-07 11:18:1632.8838-79.9528106445933Clb=7.3m/s Type=DFM17 ser=[BC]22031804 Details on http://radiosondy.info
W4DEX-14D220318042022-12-07 11:18:0132.8838-79.9547114465849Clb=6.6m/s Type=DFM17 ser=[BC]22031804 Details on http://radiosondy.info
W4DEX-14D220318042022-12-07 11:17:4632.884-79.9566109445758Clb=6.1m/s Type=DFM17 ser=[BC]22031804 Details on http://radiosondy.info
W4DEX-14D220318042022-12-07 11:17:3132.8842-79.958584445663Clb=5.9m/s Type=DFM17 ser=[BC]22031804 Details on http://radiosondy.info
W4DEX-14D220318042022-12-07 11:17:1632.8843-79.9604110505575Clb=6.8m/s Type=DFM17 ser=[BC]22031804 Details on http://radiosondy.info
W4DEX-14D220318042022-12-07 11:17:0132.8846-79.9625120525485Clb=7.4m/s Type=DFM17 ser=[BC]22031804 Details on http://radiosondy.info
W4DEX-14D220318042022-12-07 11:16:4732.8851-79.964791575396Clb=6.5m/s Type=DFM17 ser=[BC]22031804 Details on http://radiosondy.info
W4DEX-14D220318042022-12-07 11:16:3232.8857-79.96798545302Clb=5.8m/s Type=DFM17 ser=[BC]22031804 Details on http://radiosondy.info
W4DEX-14D220318042022-12-07 11:16:1632.8862-79.9693117525211Clb=8.0m/s Type=DFM17 ser=[BC]22031804 Details on http://radiosondy.info
W4DEX-14D220318042022-12-07 11:16:0132.8868-79.9714123525121Clb=5.9m/s Type=DFM17 ser=[BC]22031804 Details on http://radiosondy.info
W4DEX-14D220318042022-12-07 11:15:4632.8872-79.9736113435030Clb=7.2m/s Type=DFM17 ser=[BC]22031804 Details on http://radiosondy.info
W4DEX-14D220318042022-12-07 11:15:3132.8876-79.9754115444939Clb=6.0m/s Type=DFM17 ser=[BC]22031804 Details on http://radiosondy.info
W4DEX-14D220318042022-12-07 11:15:1632.8879-79.977397394850Clb=7.2m/s Type=DFM17 ser=[BC]22031804 Details on http://radiosondy.info
W4DEX-14D220318042022-12-07 11:15:0132.8883-79.9788108444763Clb=5.5m/s Type=DFM17 ser=[BC]22031804 Details on http://radiosondy.info
W4DEX-14D220318042022-12-07 11:14:4632.8889-79.980593394667Clb=4.9m/s Type=DFM17 ser=[BC]22031804 Details on http://radiosondy.info
W4DEX-14D220318042022-12-07 11:14:3132.8894-79.982185304582Clb=5.7m/s Type=DFM17 ser=[BC]22031804 Details on http://radiosondy.info
W4DEX-14D220318042022-12-07 11:14:1632.8898-79.9833113434503Clb=7.3m/s Type=DFM17 ser=[BC]22031804 Details on http://radiosondy.info
W4DEX-14D220318042022-12-07 11:14:0132.8904-79.9849114444415Clb=5.4m/s Type=DFM17 ser=[BC]22031804 Details on http://radiosondy.info
W4DEX-14D220318042022-12-07 11:13:4632.8911-79.9867131464328Clb=5.3m/s Type=DFM Details on http://radiosondy.info
W4DEX-14D220318042022-12-07 11:13:3132.8917-79.9885141444236Clb=5.0m/s Type=DFM Details on http://radiosondy.info
W4DEX-14D220318042022-12-07 11:13:1632.8926-79.9902116394152Clb=5.8m/s Type=DFM Details on http://radiosondy.info